Pendroy, Montana
Current Conditions -  °F | °C
As of 12:56 AM on Saturday 25 Oct 2014 (Local Time) from KCTB Reporting Station
Overcast Overcast  
Wind Chill: 44°   Ceiling: 9000
Heat Index: 44°   Visibility: 10mi
Dew Point: 32°   Wind: 3mph
Humidity: 63%   Direction: 170°S
Pressure: 30.06"   Gusts: NA
Location:  48.07°N, 112.3°W
Report Text: KCTB 250656Z AUTO 17003KT 10SM OVC090 07/00 A3006 RMK AO2 SLP180 T00670000 401330056
Loading
Personal Weather Stations






























Interactive Weather Map
Tropical Storm Tracking
New forecast layout! Learn more

10-Day Weather Forecast

Advertisements
Track Severe Weather on mobile